8MA4 weather

Crow Island Airport (Pvt)
Stow, Massachusetts, United States

Public forecast

Using degrees Fahrenheit for public forecast. Weather courtesy of forecast.io.

METAR (pilot weather report)

Closest report is Laurence G Hanscom Field, 9.6 nm (17.9 km) ENE. Retrieved 2019/07/23 18:56 UTC (15 minutes ago):

KBED 231856Z 01007KT 10SM OVC047 22/14 A2985 RMK AO2 SLP120 T02220139

TAF (pilot weather forecast)

Closest forecast is Laurence G Hanscom Field, 9.6 nm (17.9 km) ENE. Retrieved 2019/07/23 18:33 UTC (38 minutes ago):

TAF KBED 231731Z 2318/2418 01010KT P6SM OVC050 FM232300 09003KT P6SM BKN100 FM241200 34003KT P6SM BKN150 FM241700 04005KT P6SM SCT060